Sturry, United Kingdom
Current Conditions -  °F | °C
As of 8:50 AM on Thursday 23 Oct 2014 (Local Time) from EGMD Reporting Station
Broken Clouds Broken Clouds  
Wind Chill: 13°   Ceiling: 3500
Heat Index: 13°   Visibility: 6mi
Dew Point:   Wind: 8mph
Humidity: 77%   Direction: 240°WSW
Pressure: 30.18"   Gusts: NA
Location:  51.3°N, 1.12°E
Report Text: EGMD 230750Z 24007KT 9999 BKN035 13/09 Q1022
Loading
Personal Weather Stations






























Interactive Weather Map
Tropical Storm Tracking
New forecast layout! Learn more

10-Day Weather Forecast

Advertisements
Track Severe Weather on mobile